sensor_id;sensor_type;location;lat;lon;timestamp;temperature;humidity
18085;DHT22;9169;44.492;11.372;2024-02-28T00:00:15;14.90;76.80
18085;DHT22;9169;44.492;11.372;2024-02-28T00:02:45;15.00;77.20
18085;DHT22;9169;44.492;11.372;2024-02-28T00:05:14;15.00;77.20
18085;DHT22;9169;44.492;11.372;2024-02-28T00:07:42;14.90;77.10
18085;DHT22;9169;44.492;11.372;2024-02-28T00:10:12;15.00;77.30
18085;DHT22;9169;44.492;11.372;2024-02-28T00:12:41;15.00;77.50
18085;DHT22;9169;44.492;11.372;2024-02-28T00:15:09;14.90;77.50
18085;DHT22;9169;44.492;11.372;2024-02-28T00:17:39;14.90;77.60
18085;DHT22;9169;44.492;11.372;2024-02-28T00:20:10;14.90;77.50
18085;DHT22;9169;44.492;11.372;2024-02-28T00:22:39;14.90;77.40
18085;DHT22;9169;44.492;11.372;2024-02-28T00:25:09;14.90;77.30
18085;DHT22;9169;44.492;11.372;2024-02-28T00:27:38;14.90;77.40
18085;DHT22;9169;44.492;11.372;2024-02-28T00:30:07;14.90;77.40
18085;DHT22;9169;44.492;11.372;2024-02-28T00:32:36;14.90;77.40
18085;DHT22;9169;44.492;11.372;2024-02-28T00:35:05;15.00;77.90
18085;DHT22;9169;44.492;11.372;2024-02-28T00:37:35;14.90;77.70
18085;DHT22;9169;44.492;11.372;2024-02-28T00:40:04;14.90;78.40
18085;DHT22;9169;44.492;11.372;2024-02-28T00:42:32;14.90;77.60
18085;DHT22;9169;44.492;11.372;2024-02-28T00:45:00;14.90;77.50
18085;DHT22;9169;44.492;11.372;2024-02-28T00:47:29;14.90;77.40
18085;DHT22;9169;44.492;11.372;2024-02-28T00:49:58;14.90;77.40
18085;DHT22;9169;44.492;11.372;2024-02-28T00:52:30;14.90;77.60
18085;DHT22;9169;44.492;11.372;2024-02-28T00:55:00;14.90;77.60
18085;DHT22;9169;44.492;11.372;2024-02-28T00:57:29;14.90;77.70
18085;DHT22;9169;44.492;11.372;2024-02-28T00:59:57;14.90;77.70
18085;DHT22;9169;44.492;11.372;2024-02-28T01:02:26;14.90;77.80
18085;DHT22;9169;44.492;11.372;2024-02-28T01:04:54;14.90;77.80
18085;DHT22;9169;44.492;11.372;2024-02-28T01:07:23;14.80;77.90
18085;DHT22;9169;44.492;11.372;2024-02-28T01:09:51;14.80;78.00
18085;DHT22;9169;44.492;11.372;2024-02-28T01:12:21;14.80;77.90
18085;DHT22;9169;44.492;11.372;2024-02-28T01:14:49;14.80;77.90
18085;DHT22;9169;44.492;11.372;2024-02-28T01:17:18;14.80;77.80
18085;DHT22;9169;44.492;11.372;2024-02-28T01:19:46;14.80;77.90
18085;DHT22;9169;44.492;11.372;2024-02-28T01:22:15;14.80;78.10
18085;DHT22;9169;44.492;11.372;2024-02-28T01:24:43;14.80;78.10
18085;DHT22;9169;44.492;11.372;2024-02-28T01:27:12;14.80;78.10
18085;DHT22;9169;44.492;11.372;2024-02-28T01:29:42;14.80;78.10
18085;DHT22;9169;44.492;11.372;2024-02-28T01:32:10;14.80;77.90
18085;DHT22;9169;44.492;11.372;2024-02-28T01:34:39;14.80;77.80
18085;DHT22;9169;44.492;11.372;2024-02-28T01:37:07;14.80;77.70
18085;DHT22;9169;44.492;11.372;2024-02-28T01:39:36;14.80;77.60
18085;DHT22;9169;44.492;11.372;2024-02-28T01:42:04;14.80;77.60
18085;DHT22;9169;44.492;11.372;2024-02-28T01:44:35;14.90;77.60
18085;DHT22;9169;44.492;11.372;2024-02-28T01:47:07;14.90;77.50
18085;DHT22;9169;44.492;11.372;2024-02-28T01:49:35;14.90;77.60
18085;DHT22;9169;44.492;11.372;2024-02-28T01:52:04;14.90;77.50
18085;DHT22;9169;44.492;11.372;2024-02-28T01:54:34;14.90;77.50
18085;DHT22;9169;44.492;11.372;2024-02-28T01:57:03;14.90;77.70
18085;DHT22;9169;44.492;11.372;2024-02-28T01:59:32;14.90;77.70
18085;DHT22;9169;44.492;11.372;2024-02-28T02:02:02;14.90;77.70
18085;DHT22;9169;44.492;11.372;2024-02-28T02:04:33;14.90;77.70
18085;DHT22;9169;44.492;11.372;2024-02-28T02:07:02;14.90;77.70
18085;DHT22;9169;44.492;11.372;2024-02-28T02:09:31;14.90;77.50
18085;DHT22;9169;44.492;11.372;2024-02-28T02:12:01;14.90;77.50
18085;DHT22;9169;44.492;11.372;2024-02-28T02:14:29;14.90;77.50
18085;DHT22;9169;44.492;11.372;2024-02-28T02:16:58;14.90;77.50
18085;DHT22;9169;44.492;11.372;2024-02-28T02:19:26;14.90;77.50
18085;DHT22;9169;44.492;11.372;2024-02-28T02:21:58;14.90;78.10
18085;DHT22;9169;44.492;11.372;2024-02-28T02:24:27;14.90;77.40
18085;DHT22;9169;44.492;11.372;2024-02-28T02:26:57;14.90;77.30
18085;DHT22;9169;44.492;11.372;2024-02-28T02:29:26;14.90;77.10
18085;DHT22;9169;44.492;11.372;2024-02-28T02:31:55;14.90;77.00
18085;DHT22;9169;44.492;11.372;2024-02-28T02:34:24;14.90;77.00
18085;DHT22;9169;44.492;11.372;2024-02-28T02:36:52;14.90;77.00
18085;DHT22;9169;44.492;11.372;2024-02-28T02:39:21;14.90;77.00
18085;DHT22;9169;44.492;11.372;2024-02-28T02:41:51;14.90;77.00
18085;DHT22;9169;44.492;11.372;2024-02-28T02:44:19;14.90;77.00
18085;DHT22;9169;44.492;11.372;2024-02-28T02:46:48;14.90;76.90
18085;DHT22;9169;44.492;11.372;2024-02-28T02:49:16;14.90;76.90
18085;DHT22;9169;44.492;11.372;2024-02-28T02:51:45;14.90;76.80
18085;DHT22;9169;44.492;11.372;2024-02-28T02:54:14;14.90;76.90
18085;DHT22;9169;44.492;11.372;2024-02-28T02:56:42;14.90;76.90
18085;DHT22;9169;44.492;11.372;2024-02-28T02:59:12;14.90;76.80
18085;DHT22;9169;44.492;11.372;2024-02-28T03:01:41;14.90;76.80
18085;DHT22;9169;44.492;11.372;2024-02-28T03:04:09;14.90;76.70
18085;DHT22;9169;44.492;11.372;2024-02-28T03:06:38;14.90;76.50
18085;DHT22;9169;44.492;11.372;2024-02-28T03:09:06;14.90;76.40
18085;DHT22;9169;44.492;11.372;2024-02-28T03:11:34;14.90;76.30
18085;DHT22;9169;44.492;11.372;2024-02-28T03:14:03;14.80;76.00
18085;DHT22;9169;44.492;11.372;2024-02-28T03:16:33;14.80;75.90
18085;DHT22;9169;44.492;11.372;2024-02-28T03:19:04;14.80;76.00
18085;DHT22;9169;44.492;11.372;2024-02-28T03:21:34;14.80;75.90
18085;DHT22;9169;44.492;11.372;2024-02-28T03:24:03;14.80;75.90
18085;DHT22;9169;44.492;11.372;2024-02-28T03:26:31;14.80;75.90
18085;DHT22;9169;44.492;11.372;2024-02-28T03:29:00;14.80;75.80
18085;DHT22;9169;44.492;11.372;2024-02-28T03:31:28;14.80;75.80
18085;DHT22;9169;44.492;11.372;2024-02-28T03:33:58;14.70;75.70
18085;DHT22;9169;44.492;11.372;2024-02-28T03:36:28;14.70;76.40
18085;DHT22;9169;44.492;11.372;2024-02-28T03:38:56;14.60;75.70
18085;DHT22;9169;44.492;11.372;2024-02-28T03:41:25;14.60;75.70
18085;DHT22;9169;44.492;11.372;2024-02-28T03:43:53;14.60;75.80
18085;DHT22;9169;44.492;11.372;2024-02-28T03:46:22;14.50;76.10
18085;DHT22;9169;44.492;11.372;2024-02-28T03:48:50;14.50;76.20
18085;DHT22;9169;44.492;11.372;2024-02-28T03:51:20;14.50;76.40
18085;DHT22;9169;44.492;11.372;2024-02-28T03:53:48;14.50;76.60
18085;DHT22;9169;44.492;11.372;2024-02-28T03:56:22;14.50;76.60
18085;DHT22;9169;44.492;11.372;2024-02-28T03:58:52;14.50;76.90
18085;DHT22;9169;44.492;11.372;2024-02-28T04:01:21;14.50;77.00
18085;DHT22;9169;44.492;11.372;2024-02-28T04:03:49;14.40;77.10
18085;DHT22;9169;44.492;11.372;2024-02-28T04:06:18;14.40;77.50
18085;DHT22;9169;44.492;11.372;2024-02-28T04:08:47;14.30;77.40
18085;DHT22;9169;44.492;11.372;2024-02-28T04:11:16;14.30;77.50
18085;DHT22;9169;44.492;11.372;2024-02-28T04:13:44;14.30;77.20
18085;DHT22;9169;44.492;11.372;2024-02-28T04:16:13;14.30;77.20
18085;DHT22;9169;44.492;11.372;2024-02-28T04:18:41;14.30;77.90
18085;DHT22;9169;44.492;11.372;2024-02-28T04:21:10;14.30;77.50
18085;DHT22;9169;44.492;11.372;2024-02-28T04:23:38;14.30;77.60
18085;DHT22;9169;44.492;11.372;2024-02-28T04:26:10;14.30;77.80
18085;DHT22;9169;44.492;11.372;2024-02-28T04:28:38;14.30;78.00
18085;DHT22;9169;44.492;11.372;2024-02-28T04:31:07;14.30;78.10
18085;DHT22;9169;44.492;11.372;2024-02-28T04:33:36;14.30;78.70
18085;DHT22;9169;44.492;11.372;2024-02-28T04:36:05;14.30;78.10
18085;DHT22;9169;44.492;11.372;2024-02-28T04:38:33;14.30;78.20
18085;DHT22;9169;44.492;11.372;2024-02-28T04:41:02;14.30;78.00
18085;DHT22;9169;44.492;11.372;2024-02-28T04:43:32;14.30;78.00
18085;DHT22;9169;44.492;11.372;2024-02-28T04:46:02;14.30;78.00
18085;DHT22;9169;44.492;11.372;2024-02-28T04:48:31;14.30;78.30
18085;DHT22;9169;44.492;11.372;2024-02-28T04:51:00;14.30;78.40
18085;DHT22;9169;44.492;11.372;2024-02-28T04:53:29;14.30;78.50
18085;DHT22;9169;44.492;11.372;2024-02-28T04:55:57;14.30;78.60
18085;DHT22;9169;44.492;11.372;2024-02-28T04:58:26;14.30;78.70
18085;DHT22;9169;44.492;11.372;2024-02-28T05:00:55;14.30;78.50
18085;DHT22;9169;44.492;11.372;2024-02-28T05:03:24;14.30;78.60
18085;DHT22;9169;44.492;11.372;2024-02-28T05:05:53;14.30;79.00
18085;DHT22;9169;44.492;11.372;2024-02-28T05:08:21;14.20;79.00
18085;DHT22;9169;44.492;11.372;2024-02-28T05:10:50;14.30;79.20
18085;DHT22;9169;44.492;11.372;2024-02-28T05:13:19;14.20;79.20
18085;DHT22;9169;44.492;11.372;2024-02-28T05:15:49;14.30;79.40
18085;DHT22;9169;44.492;11.372;2024-02-28T05:18:19;14.30;79.40
18085;DHT22;9169;44.492;11.372;2024-02-28T05:20:47;14.30;79.40
18085;DHT22;9169;44.492;11.372;2024-02-28T05:23:16;14.30;79.40
18085;DHT22;9169;44.492;11.372;2024-02-28T05:25:45;14.30;79.40
18085;DHT22;9169;44.492;11.372;2024-02-28T05:28:14;14.30;79.50
18085;DHT22;9169;44.492;11.372;2024-02-28T05:30:42;14.30;79.50
18085;DHT22;9169;44.492;11.372;2024-02-28T05:33:12;14.20;79.50
18085;DHT22;9169;44.492;11.372;2024-02-28T05:35:41;14.20;79.70
18085;DHT22;9169;44.492;11.372;2024-02-28T05:38:10;14.20;79.60
18085;DHT22;9169;44.492;11.372;2024-02-28T05:40:38;14.20;79.50
18085;DHT22;9169;44.492;11.372;2024-02-28T05:43:09;14.20;79.60
18085;DHT22;9169;44.492;11.372;2024-02-28T05:45:37;14.20;79.60
18085;DHT22;9169;44.492;11.372;2024-02-28T05:48:06;14.30;79.60
18085;DHT22;9169;44.492;11.372;2024-02-28T05:50:35;14.30;79.50
18085;DHT22;9169;44.492;11.372;2024-02-28T05:53:05;14.30;79.40
18085;DHT22;9169;44.492;11.372;2024-02-28T05:55:33;14.30;79.30
18085;DHT22;9169;44.492;11.372;2024-02-28T05:58:01;14.30;79.30
18085;DHT22;9169;44.492;11.372;2024-02-28T06:00:30;14.30;79.40
18085;DHT22;9169;44.492;11.372;2024-02-28T06:02:59;14.30;79.50
18085;DHT22;9169;44.492;11.372;2024-02-28T06:05:27;14.30;79.50
18085;DHT22;9169;44.492;11.372;2024-02-28T06:07:56;14.30;79.50
18085;DHT22;9169;44.492;11.372;2024-02-28T06:10:26;14.30;79.50
18085;DHT22;9169;44.492;11.372;2024-02-28T06:12:55;14.30;79.60
18085;DHT22;9169;44.492;11.372;2024-02-28T06:15:24;14.30;79.70
18085;DHT22;9169;44.492;11.372;2024-02-28T06:17:52;14.20;79.70
18085;DHT22;9169;44.492;11.372;2024-02-28T06:20:21;14.20;79.70
18085;DHT22;9169;44.492;11.372;2024-02-28T06:22:49;14.20;79.70
18085;DHT22;9169;44.492;11.372;2024-02-28T06:25:18;14.20;79.60
18085;DHT22;9169;44.492;11.372;2024-02-28T06:27:50;14.20;79.80
18085;DHT22;9169;44.492;11.372;2024-02-28T06:30:19;14.20;80.00
18085;DHT22;9169;44.492;11.372;2024-02-28T06:32:47;14.20;80.00
18085;DHT22;9169;44.492;11.372;2024-02-28T06:35:17;14.20;80.00
18085;DHT22;9169;44.492;11.372;2024-02-28T06:37:45;14.30;80.40
18085;DHT22;9169;44.492;11.372;2024-02-28T06:40:17;14.20;80.40
18085;DHT22;9169;44.492;11.372;2024-02-28T06:42:44;14.20;80.30
18085;DHT22;9169;44.492;11.372;2024-02-28T06:45:14;14.30;80.40
18085;DHT22;9169;44.492;11.372;2024-02-28T06:47:42;14.20;80.40
18085;DHT22;9169;44.492;11.372;2024-02-28T06:50:12;14.30;80.60
18085;DHT22;9169;44.492;11.372;2024-02-28T06:52:41;14.20;80.40
18085;DHT22;9169;44.492;11.372;2024-02-28T06:55:10;14.30;80.60
18085;DHT22;9169;44.492;11.372;2024-02-28T06:57:40;14.20;80.50
18085;DHT22;9169;44.492;11.372;2024-02-28T07:00:10;14.20;80.60
18085;DHT22;9169;44.492;11.372;2024-02-28T07:02:40;14.20;80.70
18085;DHT22;9169;44.492;11.372;2024-02-28T07:05:09;14.20;80.60
18085;DHT22;9169;44.492;11.372;2024-02-28T07:07:37;14.20;80.80
18085;DHT22;9169;44.492;11.372;2024-02-28T07:10:07;14.20;80.90
18085;DHT22;9169;44.492;11.372;2024-02-28T07:12:35;14.20;81.10
18085;DHT22;9169;44.492;11.372;2024-02-28T07:15:04;14.10;81.10
18085;DHT22;9169;44.492;11.372;2024-02-28T07:17:33;14.10;81.20
18085;DHT22;9169;44.492;11.372;2024-02-28T07:20:03;14.10;81.40
18085;DHT22;9169;44.492;11.372;2024-02-28T07:22:31;14.10;81.50
18085;DHT22;9169;44.492;11.372;2024-02-28T07:25:00;14.10;81.60
18085;DHT22;9169;44.492;11.372;2024-02-28T07:27:28;14.10;81.70
18085;DHT22;9169;44.492;11.372;2024-02-28T07:29:57;14.20;82.10
18085;DHT22;9169;44.492;11.372;2024-02-28T07:32:25;14.20;82.30
18085;DHT22;9169;44.492;11.372;2024-02-28T07:34:54;14.20;82.40
18085;DHT22;9169;44.492;11.372;2024-02-28T07:37:24;14.20;82.40
18085;DHT22;9169;44.492;11.372;2024-02-28T07:39:52;14.20;82.20
18085;DHT22;9169;44.492;11.372;2024-02-28T07:42:21;14.20;82.50
18085;DHT22;9169;44.492;11.372;2024-02-28T07:44:49;14.10;82.50
18085;DHT22;9169;44.492;11.372;2024-02-28T07:47:20;14.20;82.70
18085;DHT22;9169;44.492;11.372;2024-02-28T07:49:50;14.10;82.50
18085;DHT22;9169;44.492;11.372;2024-02-28T07:52:18;14.10;82.80
18085;DHT22;9169;44.492;11.372;2024-02-28T07:54:48;14.20;83.10
18085;DHT22;9169;44.492;11.372;2024-02-28T07:57:17;14.20;83.40
18085;DHT22;9169;44.492;11.372;2024-02-28T07:59:45;14.10;83.00
18085;DHT22;9169;44.492;11.372;2024-02-28T08:02:14;14.10;83.20
18085;DHT22;9169;44.492;11.372;2024-02-28T08:04:42;14.10;83.30
18085;DHT22;9169;44.492;11.372;2024-02-28T08:07:11;14.10;83.60
18085;DHT22;9169;44.492;11.372;2024-02-28T08:09:39;14.10;83.80
18085;DHT22;9169;44.492;11.372;2024-02-28T08:12:09;14.20;84.00
18085;DHT22;9169;44.492;11.372;2024-02-28T08:14:41;14.20;84.00
18085;DHT22;9169;44.492;11.372;2024-02-28T08:17:10;14.20;84.00
18085;DHT22;9169;44.492;11.372;2024-02-28T08:19:41;14.30;84.20
18085;DHT22;9169;44.492;11.372;2024-02-28T08:22:10;14.30;84.10
18085;DHT22;9169;44.492;11.372;2024-02-28T08:24:38;14.30;84.20
18085;DHT22;9169;44.492;11.372;2024-02-28T08:27:09;14.30;84.20
18085;DHT22;9169;44.492;11.372;2024-02-28T08:29:40;14.30;84.30
18085;DHT22;9169;44.492;11.372;2024-02-28T08:32:10;14.40;84.40
18085;DHT22;9169;44.492;11.372;2024-02-28T08:34:43;14.40;84.20
18085;DHT22;9169;44.492;11.372;2024-02-28T08:37:11;14.40;84.10
18085;DHT22;9169;44.492;11.372;2024-02-28T08:39:40;14.40;84.10
18085;DHT22;9169;44.492;11.372;2024-02-28T08:42:09;14.50;84.20
18085;DHT22;9169;44.492;11.372;2024-02-28T08:44:39;14.50;84.20
18085;DHT22;9169;44.492;11.372;2024-02-28T08:47:07;14.50;84.20
18085;DHT22;9169;44.492;11.372;2024-02-28T08:49:38;14.50;84.50
18085;DHT22;9169;44.492;11.372;2024-02-28T08:52:07;14.40;84.50
18085;DHT22;9169;44.492;11.372;2024-02-28T08:54:36;14.50;84.50
18085;DHT22;9169;44.492;11.372;2024-02-28T08:57:04;14.50;84.60
18085;DHT22;9169;44.492;11.372;2024-02-28T08:59:34;14.50;84.80
18085;DHT22;9169;44.492;11.372;2024-02-28T09:02:02;14.50;85.00
18085;DHT22;9169;44.492;11.372;2024-02-28T09:04:31;14.50;86.00
18085;DHT22;9169;44.492;11.372;2024-02-28T09:06:59;14.50;85.40
18085;DHT22;9169;44.492;11.372;2024-02-28T09:09:28;14.50;85.40
18085;DHT22;9169;44.492;11.372;2024-02-28T09:11:59;14.50;85.40
18085;DHT22;9169;44.492;11.372;2024-02-28T09:14:30;14.50;85.20
18085;DHT22;9169;44.492;11.372;2024-02-28T09:17:00;14.50;85.00
18085;DHT22;9169;44.492;11.372;2024-02-28T09:19:30;14.50;84.90
18085;DHT22;9169;44.492;11.372;2024-02-28T09:21:59;14.50;84.80
18085;DHT22;9169;44.492;11.372;2024-02-28T09:24:27;14.50;85.00
18085;DHT22;9169;44.492;11.372;2024-02-28T09:26:56;14.50;85.30
18085;DHT22;9169;44.492;11.372;2024-02-28T09:29:24;14.50;85.30
18085;DHT22;9169;44.492;11.372;2024-02-28T09:31:53;14.50;85.10
18085;DHT22;9169;44.492;11.372;2024-02-28T09:34:23;14.50;85.10
18085;DHT22;9169;44.492;11.372;2024-02-28T09:36:51;14.50;85.00
18085;DHT22;9169;44.492;11.372;2024-02-28T09:39:20;14.60;85.00
18085;DHT22;9169;44.492;11.372;2024-02-28T09:41:48;14.60;84.90
18085;DHT22;9169;44.492;11.372;2024-02-28T09:44:18;14.60;84.90
18085;DHT22;9169;44.492;11.372;2024-02-28T09:46:46;14.60;85.10
18085;DHT22;9169;44.492;11.372;2024-02-28T09:49:16;14.60;85.20
18085;DHT22;9169;44.492;11.372;2024-02-28T09:51:49;14.60;85.40
18085;DHT22;9169;44.492;11.372;2024-02-28T09:54:18;14.60;85.30
18085;DHT22;9169;44.492;11.372;2024-02-28T09:56:47;14.50;85.30
18085;DHT22;9169;44.492;11.372;2024-02-28T09:59:18;14.50;85.20
18085;DHT22;9169;44.492;11.372;2024-02-28T10:01:55;14.50;85.30
18085;DHT22;9169;44.492;11.372;2024-02-28T10:04:25;14.50;85.70
18085;DHT22;9169;44.492;11.372;2024-02-28T10:06:56;14.50;85.70
18085;DHT22;9169;44.492;11.372;2024-02-28T10:09:24;14.50;85.60
18085;DHT22;9169;44.492;11.372;2024-02-28T10:11:53;14.50;85.80
18085;DHT22;9169;44.492;11.372;2024-02-28T10:14:22;14.50;85.70
18085;DHT22;9169;44.492;11.372;2024-02-28T10:16:50;14.50;85.70
18085;DHT22;9169;44.492;11.372;2024-02-28T10:19:19;14.50;85.90
18085;DHT22;9169;44.492;11.372;2024-02-28T10:21:47;14.50;85.90
18085;DHT22;9169;44.492;11.372;2024-02-28T10:24:18;14.50;86.30
18085;DHT22;9169;44.492;11.372;2024-02-28T10:26:47;14.40;86.10
18085;DHT22;9169;44.492;11.372;2024-02-28T10:29:22;14.50;86.10
18085;DHT22;9169;44.492;11.372;2024-02-28T10:31:51;14.50;86.00
18085;DHT22;9169;44.492;11.372;2024-02-28T10:34:20;14.50;86.00
18085;DHT22;9169;44.492;11.372;2024-02-28T10:36:49;14.50;86.20
18085;DHT22;9169;44.492;11.372;2024-02-28T10:39:19;14.50;86.40
18085;DHT22;9169;44.492;11.372;2024-02-28T10:41:50;14.50;86.30
18085;DHT22;9169;44.492;11.372;2024-02-28T10:44:20;14.50;86.10
18085;DHT22;9169;44.492;11.372;2024-02-28T10:46:50;14.50;86.20
18085;DHT22;9169;44.492;11.372;2024-02-28T10:49:18;14.50;86.40
18085;DHT22;9169;44.492;11.372;2024-02-28T10:51:49;14.50;86.40
18085;DHT22;9169;44.492;11.372;2024-02-28T10:54:21;14.50;86.40
18085;DHT22;9169;44.492;11.372;2024-02-28T10:56:53;14.50;86.50
18085;DHT22;9169;44.492;11.372;2024-02-28T10:59:23;14.50;86.70
18085;DHT22;9169;44.492;11.372;2024-02-28T11:01:53;14.50;87.20
18085;DHT22;9169;44.492;11.372;2024-02-28T11:04:22;14.50;87.50
18085;DHT22;9169;44.492;11.372;2024-02-28T11:06:53;14.60;87.80
18085;DHT22;9169;44.492;11.372;2024-02-28T11:09:25;14.60;87.90
18085;DHT22;9169;44.492;11.372;2024-02-28T11:11:54;14.60;88.20
18085;DHT22;9169;44.492;11.372;2024-02-28T11:14:23;14.60;87.90
18085;DHT22;9169;44.492;11.372;2024-02-28T11:17:00;14.60;87.90
18085;DHT22;9169;44.492;11.372;2024-02-28T11:19:29;14.60;88.00
18085;DHT22;9169;44.492;11.372;2024-02-28T11:21:59;14.60;89.00
18085;DHT22;9169;44.492;11.372;2024-02-28T11:24:33;14.60;88.60
18085;DHT22;9169;44.492;11.372;2024-02-28T11:27:04;14.70;88.70
18085;DHT22;9169;44.492;11.372;2024-02-28T11:29:33;14.70;88.40
18085;DHT22;9169;44.492;11.372;2024-02-28T11:32:02;14.70;88.20
18085;DHT22;9169;44.492;11.372;2024-02-28T11:34:31;14.80;88.40
18085;DHT22;9169;44.492;11.372;2024-02-28T11:37:00;14.80;88.20
18085;DHT22;9169;44.492;11.372;2024-02-28T11:39:29;14.80;88.20
18085;DHT22;9169;44.492;11.372;2024-02-28T11:42:10;14.80;87.70
18085;DHT22;9169;44.492;11.372;2024-02-28T11:44:40;14.70;87.80
18085;DHT22;9169;44.492;11.372;2024-02-28T11:47:09;14.80;87.70
18085;DHT22;9169;44.492;11.372;2024-02-28T11:49:38;14.80;87.70
18085;DHT22;9169;44.492;11.372;2024-02-28T11:52:06;14.80;88.00
18085;DHT22;9169;44.492;11.372;2024-02-28T11:54:37;14.80;88.00
18085;DHT22;9169;44.492;11.372;2024-02-28T11:57:07;14.80;88.20
18085;DHT22;9169;44.492;11.372;2024-02-28T11:59:37;14.70;88.60
18085;DHT22;9169;44.492;11.372;2024-02-28T12:02:11;14.70;88.60
18085;DHT22;9169;44.492;11.372;2024-02-28T12:04:41;14.80;88.60
18085;DHT22;9169;44.492;11.372;2024-02-28T12:07:09;14.80;88.40
18085;DHT22;9169;44.492;11.372;2024-02-28T12:09:38;14.90;88.30
18085;DHT22;9169;44.492;11.372;2024-02-28T12:12:08;14.90;88.20
18085;DHT22;9169;44.492;11.372;2024-02-28T12:14:37;14.90;87.90
18085;DHT22;9169;44.492;11.372;2024-02-28T12:17:08;14.90;87.60
18085;DHT22;9169;44.492;11.372;2024-02-28T12:19:37;15.00;87.70
18085;DHT22;9169;44.492;11.372;2024-02-28T12:22:05;15.00;87.40
18085;DHT22;9169;44.492;11.372;2024-02-28T12:24:34;15.00;87.30
18085;DHT22;9169;44.492;11.372;2024-02-28T12:27:03;15.00;87.20
18085;DHT22;9169;44.492;11.372;2024-02-28T12:29:32;15.00;87.00
18085;DHT22;9169;44.492;11.372;2024-02-28T12:32:02;15.10;87.00
18085;DHT22;9169;44.492;11.372;2024-02-28T12:34:31;15.10;86.90
18085;DHT22;9169;44.492;11.372;2024-02-28T12:36:59;15.10;86.80
18085;DHT22;9169;44.492;11.372;2024-02-28T12:39:28;15.10;86.80
18085;DHT22;9169;44.492;11.372;2024-02-28T12:41:56;15.10;86.70
18085;DHT22;9169;44.492;11.372;2024-02-28T12:44:25;15.10;86.60
18085;DHT22;9169;44.492;11.372;2024-02-28T12:46:53;15.10;86.70
18085;DHT22;9169;44.492;11.372;2024-02-28T12:49:23;15.20;86.80
18085;DHT22;9169;44.492;11.372;2024-02-28T12:51:52;15.20;86.90
18085;DHT22;9169;44.492;11.372;2024-02-28T12:54:20;15.20;87.00
18085;DHT22;9169;44.492;11.372;2024-02-28T12:56:49;15.20;87.10
18085;DHT22;9169;44.492;11.372;2024-02-28T12:59:18;15.30;87.50
18085;DHT22;9169;44.492;11.372;2024-02-28T13:01:47;15.30;87.50
18085;DHT22;9169;44.492;11.372;2024-02-28T13:04:16;15.40;87.60
18085;DHT22;9169;44.492;11.372;2024-02-28T13:06:46;15.40;87.50
18085;DHT22;9169;44.492;11.372;2024-02-28T13:09:14;15.40;87.50
18085;DHT22;9169;44.492;11.372;2024-02-28T13:11:43;15.50;87.50
18085;DHT22;9169;44.492;11.372;2024-02-28T13:14:11;15.50;87.50
18085;DHT22;9169;44.492;11.372;2024-02-28T13:16:41;15.50;87.60
18085;DHT22;9169;44.492;11.372;2024-02-28T13:19:09;15.50;87.80
18085;DHT22;9169;44.492;11.372;2024-02-28T13:21:38;15.50;87.70
18085;DHT22;9169;44.492;11.372;2024-02-28T13:24:08;15.60;87.80
18085;DHT22;9169;44.492;11.372;2024-02-28T13:26:37;15.60;87.70
18085;DHT22;9169;44.492;11.372;2024-02-28T13:29:05;15.60;87.60
18085;DHT22;9169;44.492;11.372;2024-02-28T13:31:34;15.70;88.30
18085;DHT22;9169;44.492;11.372;2024-02-28T13:34:03;15.70;87.60
18085;DHT22;9169;44.492;11.372;2024-02-28T13:36:31;15.80;87.50
18085;DHT22;9169;44.492;11.372;2024-02-28T13:39:03;15.70;87.20
18085;DHT22;9169;44.492;11.372;2024-02-28T13:41:33;15.70;87.00
18085;DHT22;9169;44.492;11.372;2024-02-28T13:44:02;15.70;86.80
18085;DHT22;9169;44.492;11.372;2024-02-28T13:46:31;15.60;86.60
18085;DHT22;9169;44.492;11.372;2024-02-28T13:48:59;15.60;86.60
18085;DHT22;9169;44.492;11.372;2024-02-28T13:51:28;15.60;86.70
18085;DHT22;9169;44.492;11.372;2024-02-28T13:53:56;15.60;86.70
18085;DHT22;9169;44.492;11.372;2024-02-28T13:56:25;15.60;86.70
18085;DHT22;9169;44.492;11.372;2024-02-28T13:58:55;15.60;86.50
18085;DHT22;9169;44.492;11.372;2024-02-28T14:01:23;15.60;86.50
18085;DHT22;9169;44.492;11.372;2024-02-28T14:03:52;15.60;86.50
18085;DHT22;9169;44.492;11.372;2024-02-28T14:06:21;15.60;86.50
18085;DHT22;9169;44.492;11.372;2024-02-28T14:08:50;15.60;86.30
18085;DHT22;9169;44.492;11.372;2024-02-28T14:11:21;15.60;86.40
18085;DHT22;9169;44.492;11.372;2024-02-28T14:13:50;15.50;86.20
18085;DHT22;9169;44.492;11.372;2024-02-28T14:16:19;15.50;86.30
18085;DHT22;9169;44.492;11.372;2024-02-28T14:18:48;15.50;86.40
18085;DHT22;9169;44.492;11.372;2024-02-28T14:21:16;15.50;86.40
18085;DHT22;9169;44.492;11.372;2024-02-28T14:23:46;15.50;86.50
18085;DHT22;9169;44.492;11.372;2024-02-28T14:26:15;15.50;86.50
18085;DHT22;9169;44.492;11.372;2024-02-28T14:28:43;15.50;86.70
18085;DHT22;9169;44.492;11.372;2024-02-28T14:31:12;15.60;86.80
18085;DHT22;9169;44.492;11.372;2024-02-28T14:33:42;15.60;86.90
18085;DHT22;9169;44.492;11.372;2024-02-28T14:36:10;15.60;86.90
18085;DHT22;9169;44.492;11.372;2024-02-28T14:38:39;15.60;86.90
18085;DHT22;9169;44.492;11.372;2024-02-28T14:41:09;15.60;86.80
18085;DHT22;9169;44.492;11.372;2024-02-28T14:43:37;15.60;86.50
18085;DHT22;9169;44.492;11.372;2024-02-28T14:46:06;15.60;86.50
18085;DHT22;9169;44.492;11.372;2024-02-28T14:48:37;15.60;86.60
18085;DHT22;9169;44.492;11.372;2024-02-28T14:51:08;15.60;86.40
18085;DHT22;9169;44.492;11.372;2024-02-28T14:53:37;15.60;86.50
18085;DHT22;9169;44.492;11.372;2024-02-28T14:56:05;15.60;86.30
18085;DHT22;9169;44.492;11.372;2024-02-28T14:58:34;15.60;86.20
18085;DHT22;9169;44.492;11.372;2024-02-28T15:01:04;15.60;86.20
18085;DHT22;9169;44.492;11.372;2024-02-28T15:03:33;15.60;86.30
18085;DHT22;9169;44.492;11.372;2024-02-28T15:06:03;15.60;86.30
18085;DHT22;9169;44.492;11.372;2024-02-28T15:08:34;15.60;86.40
18085;DHT22;9169;44.492;11.372;2024-02-28T15:11:03;15.60;86.40
18085;DHT22;9169;44.492;11.372;2024-02-28T15:13:31;15.60;86.40
18085;DHT22;9169;44.492;11.372;2024-02-28T15:16:00;15.60;86.40
18085;DHT22;9169;44.492;11.372;2024-02-28T15:18:28;15.60;86.40
18085;DHT22;9169;44.492;11.372;2024-02-28T15:20:57;15.60;86.30
18085;DHT22;9169;44.492;11.372;2024-02-28T15:23:27;15.60;86.40
18085;DHT22;9169;44.492;11.372;2024-02-28T15:25:57;15.50;86.40
18085;DHT22;9169;44.492;11.372;2024-02-28T15:28:26;15.50;86.40
18085;DHT22;9169;44.492;11.372;2024-02-28T15:30:54;15.50;86.30
18085;DHT22;9169;44.492;11.372;2024-02-28T15:33:23;15.50;86.30
18085;DHT22;9169;44.492;11.372;2024-02-28T15:35:52;15.50;86.40
18085;DHT22;9169;44.492;11.372;2024-02-28T15:38:20;15.50;86.40
18085;DHT22;9169;44.492;11.372;2024-02-28T15:40:49;15.50;86.40